createdAt,value
2019-02-18T00:00:24.192Z,4.4
2019-02-18T00:03:24.357Z,4.5
2019-02-18T00:06:24.055Z,4.1
2019-02-18T00:09:24.371Z,4
2019-02-18T00:12:24.268Z,4.5
2019-02-18T00:15:24.095Z,4.6
2019-02-18T00:18:24.314Z,4.2
2019-02-18T00:21:32.963Z,4.3
2019-02-18T00:24:24.011Z,4.2
2019-02-18T00:27:24.876Z,4.2
2019-02-18T00:30:24.314Z,4.2
2019-02-18T00:33:24.496Z,4.3
2019-02-18T00:36:24.363Z,4.3
2019-02-18T00:39:23.887Z,4.1
2019-02-18T00:42:24.395Z,4.3
2019-02-18T00:45:24.010Z,4
2019-02-18T00:48:24.118Z,4.3
2019-02-18T00:51:24.135Z,4.3
2019-02-18T00:54:23.928Z,4.2
2019-02-18T00:57:24.192Z,4.2
2019-02-18T01:00:24.840Z,4.4
2019-02-18T01:03:24.182Z,4.3
2019-02-18T01:06:24.248Z,4.2
2019-02-18T01:09:24.085Z,4.3
2019-02-18T01:12:24.439Z,4
2019-02-18T01:15:23.871Z,4.5
2019-02-18T01:18:24.745Z,4.1
2019-02-18T01:21:23.922Z,4.1
2019-02-18T01:24:24.302Z,4.2
2019-02-18T01:27:24.073Z,4.2
2019-02-18T01:30:24.301Z,4.1
2019-02-18T01:33:24.762Z,4.2
2019-02-18T01:36:24.037Z,4.3
2019-02-18T01:39:24.186Z,4.4
2019-02-18T01:42:24.180Z,4.3
2019-02-18T01:45:24.187Z,4.5
2019-02-18T01:48:24.245Z,4.1
2019-02-18T01:51:24.045Z,4.3
2019-02-18T01:54:24.419Z,4.2
2019-02-18T01:57:25.938Z,4.2
2019-02-18T02:00:24.345Z,4.2
2019-02-18T02:03:25.614Z,4.3
2019-02-18T02:06:24.290Z,4.1
2019-02-18T02:09:24.720Z,4.2
2019-02-18T02:12:23.972Z,4.1
2019-02-18T02:15:25.718Z,4.1
2019-02-18T02:18:25.782Z,3.8
2019-02-18T02:21:23.898Z,4.2
2019-02-18T02:24:24.070Z,4.3
2019-02-18T02:27:24.202Z,4.2
2019-02-18T02:30:23.993Z,4
2019-02-18T02:33:24.306Z,4.1
2019-02-18T02:36:24.072Z,4.2
2019-02-18T02:39:24.020Z,4.3
2019-02-18T02:42:24.068Z,4.4
2019-02-18T02:45:24.079Z,4.5
2019-02-18T02:48:23.874Z,3.8
2019-02-18T02:51:24.692Z,4.1
2019-02-18T02:54:24.382Z,4.8
2019-02-18T02:57:24.367Z,4.2
2019-02-18T03:00:25.446Z,3.7
2019-02-18T03:03:24.674Z,4.1
2019-02-18T03:06:23.787Z,4.1
2019-02-18T03:09:23.885Z,3.9
2019-02-18T03:12:23.964Z,3.9
2019-02-18T03:15:25.710Z,4.4
2019-02-18T03:18:23.750Z,4
2019-02-18T03:21:25.732Z,4.1
2019-02-18T03:24:24.000Z,4
2019-02-18T03:27:25.729Z,4.2
2019-02-18T03:30:25.783Z,4.7
2019-02-18T03:33:23.989Z,4
2019-02-18T03:36:24.285Z,4.1
2019-02-18T03:39:23.821Z,4.1
2019-02-18T03:42:24.252Z,4.1
2019-02-18T03:45:23.846Z,3.7
2019-02-18T03:48:23.763Z,4.1
2019-02-18T03:51:23.795Z,3.9
2019-02-18T03:54:23.901Z,4.1
2019-02-18T03:57:24.152Z,4.1
2019-02-18T04:00:24.245Z,3.8
2019-02-18T04:03:24.056Z,3.8
2019-02-18T04:06:24.541Z,3.9
2019-02-18T04:09:25.040Z,4
2019-02-18T04:12:24.072Z,3.9
2019-02-18T04:15:24.382Z,3.9
2019-02-18T04:18:24.139Z,3.8
2019-02-18T04:21:23.950Z,3.8
2019-02-18T04:24:23.999Z,4.2
2019-02-18T04:27:23.972Z,3.9
2019-02-18T04:30:24.009Z,3.7
2019-02-18T04:33:23.660Z,4.1
2019-02-18T04:36:24.090Z,4.1
2019-02-18T04:39:24.017Z,4
2019-02-18T04:42:24.053Z,4.9
2019-02-18T04:45:24.541Z,3.9
2019-02-18T04:48:25.704Z,3.8
2019-02-18T04:51:23.767Z,4.1
2019-02-18T04:54:23.797Z,3.8
2019-02-18T04:57:24.382Z,3.9
2019-02-18T05:00:24.092Z,3.7
2019-02-18T05:03:23.941Z,3.6
2019-02-18T05:06:26.057Z,3.7
2019-02-18T05:09:23.975Z,4
2019-02-18T05:12:24.095Z,3.8
2019-02-18T05:15:23.717Z,3.6
2019-02-18T05:18:23.519Z,3.8
2019-02-18T05:21:24.007Z,3.9
2019-02-18T05:24:23.695Z,3.7
2019-02-18T05:27:33.977Z,4
2019-02-18T05:30:24.569Z,3.9
2019-02-18T05:33:24.022Z,3.7
2019-02-18T05:36:23.941Z,3.6
2019-02-18T05:39:23.832Z,3.7
2019-02-18T05:42:23.873Z,3.7
2019-02-18T05:45:23.845Z,3.7
2019-02-18T05:48:23.799Z,3.8
2019-02-18T05:51:24.064Z,3.6
2019-02-18T05:54:24.066Z,3.7
2019-02-18T05:57:24.818Z,3.5
2019-02-18T06:00:24.743Z,3.6
2019-02-18T06:03:23.966Z,4
2019-02-18T06:06:23.833Z,3.8
2019-02-18T06:09:30.723Z,3.6
2019-02-18T06:12:24.927Z,3.7
2019-02-18T06:15:24.181Z,3.6
2019-02-18T06:18:24.220Z,3.6
2019-02-18T06:21:24.061Z,3.6
2019-02-18T06:24:23.972Z,3.6
2019-02-18T06:27:25.682Z,3.6
2019-02-18T06:30:23.748Z,3.5
2019-02-18T06:33:23.820Z,3.7
2019-02-18T06:36:24.438Z,3.8
2019-02-18T06:39:24.022Z,3.8
2019-02-18T06:42:24.144Z,5.1
2019-02-18T06:45:23.965Z,5
2019-02-18T06:48:24.019Z,5.2
2019-02-18T06:51:24.116Z,6.2
2019-02-18T06:54:24.184Z,7.5
2019-02-18T06:57:23.895Z,5.4
2019-02-18T07:00:23.861Z,5.6
2019-02-18T07:03:24.031Z,5.9
2019-02-18T07:06:25.848Z,4.3
2019-02-18T07:09:24.290Z,6.3
2019-02-18T07:12:24.076Z,4.5
2019-02-18T07:15:24.063Z,6.5
2019-02-18T07:18:23.853Z,4.6
2019-02-18T07:21:23.854Z,4.1
2019-02-18T07:24:24.366Z,3.6
2019-02-18T07:27:23.785Z,4.3
2019-02-18T07:30:23.742Z,3.6
2019-02-18T07:33:24.403Z,3.9
2019-02-18T07:36:25.641Z,3.9
2019-02-18T07:39:23.882Z,4.2
2019-02-18T07:42:23.637Z,4.5
2019-02-18T07:45:23.840Z,3.7
2019-02-18T07:48:24.060Z,3.4
2019-02-18T07:51:24.677Z,3.8
2019-02-18T07:54:25.746Z,3.4
2019-02-18T07:57:24.000Z,3.2
2019-02-18T08:00:23.838Z,3.4
2019-02-18T08:03:24.144Z,4.1
2019-02-18T08:06:24.094Z,3.8
2019-02-18T08:09:23.921Z,3.7
2019-02-18T08:12:23.930Z,3.3
2019-02-18T08:15:24.031Z,3.6
2019-02-18T08:18:23.926Z,4.1
2019-02-18T08:21:24.009Z,4.2
2019-02-18T08:24:25.626Z,3.5
2019-02-18T08:27:24.076Z,3.4
2019-02-18T08:30:24.374Z,3.6
2019-02-18T08:33:24.618Z,3.4
2019-02-18T08:36:24.503Z,4.2
2019-02-18T08:39:23.626Z,3.5
2019-02-18T08:42:23.741Z,3.5
2019-02-18T08:45:24.285Z,3.3
2019-02-18T08:48:24.696Z,3.4
2019-02-18T08:51:24.531Z,3.3
2019-02-18T08:54:24.100Z,3.8
2019-02-18T08:57:24.559Z,4.1
2019-02-18T09:00:23.999Z,3.7
2019-02-18T09:03:23.901Z,7.2
2019-02-18T09:06:24.136Z,7
2019-02-18T09:09:23.953Z,7.3
2019-02-18T09:12:24.338Z,7.1
2019-02-18T09:15:24.034Z,4.9
2019-02-18T09:18:23.954Z,5.4
2019-02-18T09:21:24.111Z,6.5
2019-02-18T09:24:23.776Z,5.6
2019-02-18T09:27:23.661Z,5
2019-02-18T09:30:24.025Z,6.1
2019-02-18T09:33:24.204Z,4.9
2019-02-18T09:36:23.821Z,7.2
2019-02-18T09:39:32.007Z,5.6
2019-02-18T09:42:26.869Z,5.1
2019-02-18T09:45:24.162Z,4.8
2019-02-18T09:48:24.021Z,3.4
2019-02-18T09:51:24.144Z,3.5
2019-02-18T09:54:24.251Z,4.8
2019-02-18T09:57:24.185Z,5.1
2019-02-18T10:00:24.002Z,3.4
2019-02-18T10:03:32.704Z,3.6
2019-02-18T10:06:23.965Z,4.5
2019-02-18T10:09:23.777Z,8.6
2019-02-18T10:12:24.079Z,8
2019-02-18T10:15:23.885Z,7.8
2019-02-18T10:18:23.620Z,10.1
2019-02-18T10:21:23.811Z,10.3
2019-02-18T10:24:23.859Z,9
2019-02-18T10:27:23.850Z,12.8
2019-02-18T10:30:25.509Z,11.9
2019-02-18T10:33:23.715Z,7.8
2019-02-18T10:36:24.276Z,9.2
2019-02-18T10:39:24.114Z,6.4
2019-02-18T10:42:23.881Z,9.5
2019-02-18T10:45:25.500Z,8.8
2019-02-18T10:48:23.862Z,9
2019-02-18T10:51:24.002Z,5.3
2019-02-18T10:54:23.993Z,9.3
2019-02-18T10:57:28.366Z,8.4
2019-02-18T11:00:24.170Z,6.1
2019-02-18T11:03:23.863Z,8.3
2019-02-18T11:06:23.886Z,8.8
2019-02-18T11:09:24.044Z,5.6
2019-02-18T11:12:23.602Z,5.9
2019-02-18T11:15:24.474Z,7.9
2019-02-18T11:18:23.437Z,8.8
2019-02-18T11:21:23.587Z,6
2019-02-18T11:24:28.050Z,6.2
2019-02-18T11:27:23.878Z,6.9
2019-02-18T11:30:23.807Z,5.4
2019-02-18T11:33:23.982Z,4.3
2019-02-18T11:36:23.779Z,4.8
2019-02-18T11:39:24.055Z,7.8
2019-02-18T11:42:24.322Z,5.6
2019-02-18T11:45:24.051Z,6.9
2019-02-18T11:48:26.894Z,5.1
2019-02-18T11:51:24.062Z,6
2019-02-18T11:54:24.393Z,5.1
2019-02-18T11:57:24.249Z,4.3
2019-02-18T12:00:23.813Z,7.3
2019-02-18T12:03:24.082Z,5.5
2019-02-18T12:06:24.253Z,5.8
2019-02-18T12:09:23.936Z,5.3
2019-02-18T12:12:24.093Z,5.9
2019-02-18T12:15:24.315Z,5
2019-02-18T12:18:24.148Z,5.1
2019-02-18T12:21:23.892Z,6.2
2019-02-18T12:24:23.805Z,5.8
2019-02-18T12:27:24.070Z,5.4
2019-02-18T12:30:23.927Z,4.1
2019-02-18T12:33:24.213Z,5.3
2019-02-18T12:36:23.812Z,5
2019-02-18T12:39:24.141Z,4
2019-02-18T12:42:26.769Z,5.5
2019-02-18T12:45:24.596Z,5.7
2019-02-18T12:48:23.959Z,9.1
2019-02-18T12:51:24.704Z,9
2019-02-18T12:54:24.296Z,4.9
2019-02-18T12:57:26.568Z,5.2
2019-02-18T13:00:24.611Z,5.4
2019-02-18T13:03:23.916Z,6.3
2019-02-18T13:06:23.872Z,5.1
2019-02-18T13:09:24.020Z,6.1
2019-02-18T13:12:24.008Z,3.4
2019-02-18T13:15:25.801Z,5.1
2019-02-18T13:18:26.309Z,3.8
2019-02-18T13:21:24.435Z,4.6
2019-02-18T13:24:25.629Z,4.9
2019-02-18T13:27:23.666Z,5.2
2019-02-18T13:30:24.451Z,4.6
2019-02-18T13:33:26.007Z,4.3
2019-02-18T13:36:24.642Z,3.7
2019-02-18T13:39:24.191Z,3.4
2019-02-18T13:42:24.157Z,4.1
2019-02-18T13:45:24.134Z,4.1
2019-02-18T13:48:24.017Z,3.5
2019-02-18T13:51:24.922Z,3.4
2019-02-18T13:54:23.908Z,4.5
2019-02-18T13:57:23.863Z,4
2019-02-18T14:00:24.683Z,3.8
2019-02-18T14:03:23.772Z,3.2
2019-02-18T14:06:23.914Z,3.5
2019-02-18T14:09:23.653Z,3.2
2019-02-18T14:12:26.695Z,3.5
2019-02-18T14:15:24.269Z,4
2019-02-18T14:18:24.007Z,3.6
2019-02-18T14:21:24.141Z,4.6
2019-02-18T14:24:24.034Z,3
2019-02-18T14:27:24.858Z,3.4
2019-02-18T14:30:24.150Z,3.2
2019-02-18T14:33:23.998Z,3.1
2019-02-18T14:36:24.109Z,3.5
2019-02-18T14:39:23.897Z,3.1
2019-02-18T14:42:25.028Z,3.1
2019-02-18T14:45:23.988Z,2.9
2019-02-18T14:48:24.544Z,3.1
2019-02-18T14:51:23.814Z,7.4
2019-02-18T14:54:23.914Z,6.7
2019-02-18T14:57:24.077Z,4.1
2019-02-18T15:00:24.737Z,3.4
2019-02-18T15:03:23.664Z,4.5
2019-02-18T15:06:26.854Z,5.4
2019-02-18T15:09:24.033Z,8.1
2019-02-18T15:12:23.975Z,5.6
2019-02-18T15:15:23.974Z,6.4
2019-02-18T15:18:23.854Z,4.1
2019-02-18T15:21:23.487Z,7.4
2019-02-18T15:24:24.254Z,4.5
2019-02-18T15:27:25.546Z,5.4
2019-02-18T15:30:23.736Z,4.8
2019-02-18T15:33:23.526Z,4.2
2019-02-18T15:36:25.151Z,4.4
2019-02-18T15:39:23.937Z,4
2019-02-18T15:42:23.870Z,3.9
2019-02-18T15:45:26.753Z,3.2
2019-02-18T15:48:23.522Z,3.8
2019-02-18T15:51:23.883Z,3.1
2019-02-18T15:54:23.881Z,4
2019-02-18T15:57:25.268Z,3.9
2019-02-18T16:00:23.930Z,4
2019-02-18T16:03:23.895Z,3.9
2019-02-18T16:06:23.910Z,3.4
2019-02-18T16:09:24.423Z,3.8
2019-02-18T16:12:23.649Z,3.4
2019-02-18T16:15:23.807Z,2.9
2019-02-18T16:18:23.740Z,2.8
2019-02-18T16:21:23.717Z,3
2019-02-18T16:24:23.643Z,3.7
2019-02-18T16:27:23.912Z,3.3
2019-02-18T16:30:24.858Z,3.5
2019-02-18T16:33:23.973Z,2.5
2019-02-18T16:36:27.017Z,4.3
2019-02-18T16:39:23.859Z,3
2019-02-18T16:42:27.163Z,3.5
2019-02-18T16:45:23.683Z,4.8
2019-02-18T16:48:23.893Z,3.1
2019-02-18T16:51:24.102Z,3.8
2019-02-18T16:54:23.996Z,2.9
2019-02-18T16:57:23.921Z,3.7
2019-02-18T17:00:25.620Z,2.9
2019-02-18T17:03:26.903Z,2.6
2019-02-18T17:06:24.164Z,3.5
2019-02-18T17:09:24.062Z,2.7
2019-02-18T17:12:24.074Z,2.7
2019-02-18T17:15:24.639Z,2.9
2019-02-18T17:18:26.193Z,2.9
2019-02-18T17:21:23.841Z,2.8
2019-02-18T17:24:23.945Z,3.6
2019-02-18T17:27:25.490Z,3
2019-02-18T17:30:25.536Z,2.7
2019-02-18T17:33:24.464Z,3.9
2019-02-18T17:36:23.946Z,3
2019-02-18T17:39:23.874Z,3.2
2019-02-18T17:42:25.502Z,2.6
2019-02-18T17:45:24.148Z,3.6
2019-02-18T17:48:24.025Z,2.6
2019-02-18T17:51:23.614Z,2.8
2019-02-18T17:54:23.896Z,3.3
2019-02-18T17:57:26.475Z,2.8
2019-02-18T18:00:25.315Z,2.6
2019-02-18T18:03:24.121Z,2.6
2019-02-18T18:06:23.691Z,2.8
2019-02-18T18:09:23.388Z,3
2019-02-18T18:12:26.682Z,2.9
2019-02-18T18:15:23.969Z,5.4
2019-02-18T18:18:23.532Z,3.2
2019-02-18T18:21:23.618Z,4.7
2019-02-18T18:24:24.638Z,5.1
2019-02-18T18:27:26.076Z,5.8
2019-02-18T18:30:25.498Z,4.9
2019-02-18T18:33:24.034Z,4.4
2019-02-18T18:36:23.727Z,3.6
2019-02-18T18:39:23.855Z,6.8
2019-02-18T18:42:23.914Z,3.5
2019-02-18T18:45:23.906Z,3.2
2019-02-18T18:48:23.876Z,5.8
2019-02-18T18:51:26.145Z,4.1
2019-02-18T18:54:23.591Z,2.7
2019-02-18T18:57:23.949Z,3.8
2019-02-18T19:00:23.478Z,4.5
2019-02-18T19:03:25.349Z,3.6
2019-02-18T19:06:23.455Z,2.9
2019-02-18T19:09:23.417Z,3.3
2019-02-18T19:12:23.863Z,5
2019-02-18T19:15:23.457Z,3.4
2019-02-18T19:18:23.911Z,3.7
2019-02-18T19:21:23.558Z,3.4
2019-02-18T19:24:23.648Z,3.3
2019-02-18T19:27:25.301Z,4.1
2019-02-18T19:30:23.631Z,6.8
2019-02-18T19:33:23.854Z,4.5
2019-02-18T19:36:23.477Z,4.2
2019-02-18T19:39:23.672Z,6.2
2019-02-18T19:42:23.927Z,4.8
2019-02-18T19:45:23.823Z,4.5
2019-02-18T19:48:23.730Z,5.3
2019-02-18T19:51:23.972Z,4.8
2019-02-18T19:54:25.472Z,4.3
2019-02-18T19:57:23.943Z,5.3
2019-02-18T20:00:23.895Z,5.3
2019-02-18T20:03:24.751Z,4.7
2019-02-18T20:06:23.953Z,6.3
2019-02-18T20:09:23.947Z,4.9
2019-02-18T20:12:23.889Z,5.6
2019-02-18T20:15:23.577Z,5
2019-02-18T20:18:27.999Z,4.2
2019-02-18T20:21:23.381Z,8.7
2019-02-18T20:24:23.652Z,5.5
2019-02-18T20:27:23.720Z,6.8
2019-02-18T20:30:23.942Z,4.6
2019-02-18T20:33:23.753Z,5.1
2019-02-18T20:36:23.480Z,4.9
2019-02-18T20:39:23.707Z,5.4
2019-02-18T20:42:23.594Z,4.8
2019-02-18T20:45:23.754Z,6.9
2019-02-18T20:48:23.678Z,4.9
2019-02-18T20:51:25.472Z,6.6
2019-02-18T20:54:23.853Z,6
2019-02-18T20:57:26.745Z,5.7
2019-02-18T21:00:23.442Z,5.4
2019-02-18T21:03:23.874Z,8.1
2019-02-18T21:06:23.480Z,6.6
2019-02-18T21:09:24.832Z,5.7
2019-02-18T21:12:23.514Z,6.9
2019-02-18T21:15:23.999Z,5.4
2019-02-18T21:18:23.587Z,4.9
2019-02-18T21:21:23.832Z,5.7
2019-02-18T21:24:23.955Z,5.8
2019-02-18T21:27:23.961Z,6
2019-02-18T21:30:23.895Z,6
2019-02-18T21:33:23.876Z,5.1
2019-02-18T21:36:26.308Z,5.8
2019-02-18T21:39:25.177Z,6.1
2019-02-18T21:42:23.891Z,5.6
2019-02-18T21:45:23.978Z,6
2019-02-18T21:48:23.768Z,6.7
2019-02-18T21:51:24.322Z,6.4
2019-02-18T21:54:23.390Z,5.9
2019-02-18T21:57:23.779Z,5.7
2019-02-18T22:00:23.764Z,5.8
2019-02-18T22:03:24.334Z,5.6
2019-02-18T22:06:23.918Z,5.6
2019-02-18T22:09:23.582Z,5.5
2019-02-18T22:12:23.657Z,7.4
2019-02-18T22:15:23.648Z,5.6
2019-02-18T22:18:23.511Z,6.2
2019-02-18T22:21:23.811Z,6.4
2019-02-18T22:24:23.513Z,5.8
2019-02-18T22:27:23.383Z,7
2019-02-18T22:30:23.668Z,6.5
2019-02-18T22:33:23.456Z,5.5
2019-02-18T22:36:24.381Z,5.1
2019-02-18T22:39:23.332Z,5.6
2019-02-18T22:42:23.322Z,5.7
2019-02-18T22:45:24.499Z,5.6
2019-02-18T22:48:23.480Z,5.8
2019-02-18T22:51:23.864Z,5.8
2019-02-18T22:54:23.764Z,5.8
2019-02-18T22:57:23.818Z,5.9
2019-02-18T23:00:23.760Z,5.9
2019-02-18T23:03:23.862Z,5.8
2019-02-18T23:06:24.032Z,5.6
2019-02-18T23:09:25.336Z,5.9
2019-02-18T23:12:23.600Z,6
2019-02-18T23:15:26.915Z,6.1
2019-02-18T23:18:24.046Z,6.6
2019-02-18T23:21:23.543Z,6.5
2019-02-18T23:24:24.755Z,6
2019-02-18T23:27:23.384Z,6.3
2019-02-18T23:30:26.307Z,6
2019-02-18T23:33:23.739Z,5.9
2019-02-18T23:36:23.369Z,6.1
2019-02-18T23:39:23.389Z,6
2019-02-18T23:42:23.881Z,8.1
2019-02-18T23:45:23.378Z,6.1
2019-02-18T23:48:24.333Z,6.3
2019-02-18T23:51:23.608Z,6.5
2019-02-18T23:54:23.400Z,6
2019-02-18T23:57:23.399Z,6.3
